»·PEaware :: NKS245 KLAS-KSAN

NKS245 :: KLAS-KSAN

FLIGHT INFORMATION

Flight Status: Arrived
Operator:
Spirit Airlines
More flights by this operator :: More flights under this callsign
Pilot: Christopher T. (13902)
Aircraft: AIRBUS A320
(A320)
More flights by this aircraft type
Origin: KLAS McCarran Intl
United States
Destination: KSAN San Diego Intl-Lindbergh
United States
More flights between these airports :: More routes between these airports
Route: BOACH8 LVELL LUCKI1
File this flight plan on PilotEdge
Remarks:
Altitude:
(Current/Filed)
26,000ft
Speed:
(Current/Filed)
295kts
Departed: 05-Aug-18 06:26 PM
Arrived: 05-Aug-18 07:12 PM
Distance/Time
Traveled:
225nm/0:46
Distance/Time
To Go:
Arrived

Flight Plot

Page will automatically refresh every two minutes.

Flight plan parsing failed; only flown route is shown


Map Options




Map Legend


Flown Route
Filed Route
Departure Airport
Arrival Airport
Navaid (VOR, NDB)
Fix

Horizontal Profiles

Position Reports

Time Latitude Longitude Heading Altitude Ground
Speed
05-Aug-18 17:51 36.082377 -115.152918 0 2114ft 0kts
05-Aug-18 17:52 36.082377 -115.152918 0 2114ft 0kts
05-Aug-18 17:53 36.082377 -115.152918 0 2114ft 0kts
05-Aug-18 17:54 36.082377 -115.152918 0 2114ft 0kts
05-Aug-18 17:55 36.082377 -115.152918 0 2114ft 0kts
05-Aug-18 17:56 36.082377 -115.152918 0 2114ft 0kts
05-Aug-18 17:57 36.082377 -115.152918 0 2114ft 0kts
05-Aug-18 17:58 36.082377 -115.152918 0 2114ft 0kts
05-Aug-18 17:59 36.082377 -115.152918 0 2114ft 0kts
05-Aug-18 18:00 36.082377 -115.152918 0 2114ft 0kts
05-Aug-18 18:01 36.082377 -115.152918 0 2114ft 0kts
05-Aug-18 18:02 36.082377 -115.152918 0 2114ft 0kts
05-Aug-18 18:03 36.082377 -115.152918 0 2114ft 0kts
05-Aug-18 18:04 36.082377 -115.152918 0 2114ft 0kts
05-Aug-18 18:05 36.082377 -115.152918 0 2114ft 0kts
05-Aug-18 18:06 36.082377 -115.152918 0 2114ft 0kts
05-Aug-18 18:07 36.082377 -115.152918 0 2114ft 0kts
05-Aug-18 18:08 36.082377 -115.152918 0 2114ft 0kts
05-Aug-18 18:09 36.082377 -115.152918 0 2114ft 0kts
05-Aug-18 18:10 36.082377 -115.152918 0 2114ft 0kts
05-Aug-18 18:11 36.082377 -115.152918 0 2114ft 0kts
05-Aug-18 18:12 36.082377 -115.152917 0 2114ft 0kts
05-Aug-18 18:13 36.082377 -115.152917 0 2114ft 0kts
05-Aug-18 18:14 36.082371 -115.152917 359 2114ft 2kts
05-Aug-18 18:15 36.081408 -115.152920 1 2118ft 0kts
05-Aug-18 18:16 36.081408 -115.152920 1 2118ft 0kts
05-Aug-18 18:17 36.081408 -115.152920 1 2118ft 0kts
05-Aug-18 18:18 36.081408 -115.152920 1 2118ft 0kts
05-Aug-18 18:19 36.081511 -115.153067 260 2118ft 1kts
05-Aug-18 18:20 36.081363 -115.153810 257 2120ft 7kts
05-Aug-18 18:21 36.083093 -115.155828 335 2123ft 11kts
05-Aug-18 18:22 36.086967 -115.157919 5 2123ft 14kts
05-Aug-18 18:23 36.091795 -115.155236 25 2100ft 21kts
05-Aug-18 18:24 36.096270 -115.152652 24 2082ft 14kts
05-Aug-18 18:25 36.097970 -115.152418 299 2078ft 0kts
05-Aug-18 18:26 36.098318 -115.153320 289 2080ft 8kts
05-Aug-18 18:27 36.077422 -115.165989 208 2704ft 170kts
05-Aug-18 18:28 36.029372 -115.193353 206 5924ft 214kts
05-Aug-18 18:29 35.988852 -115.260751 241 7051ft 279kts
05-Aug-18 18:30 35.935340 -115.309957 184 7484ft 279kts
05-Aug-18 18:31 35.856407 -115.315558 181 10242ft 304kts
05-Aug-18 18:32 35.762917 -115.304646 176 11758ft 365kts
05-Aug-18 18:33 35.660175 -115.295397 184 14233ft 377kts
05-Aug-18 18:34 35.554448 -115.299621 184 16602ft 387kts
05-Aug-18 18:35 35.445825 -115.303914 185 18804ft 397kts
05-Aug-18 18:36 35.334744 -115.308296 185 20842ft 406kts
05-Aug-18 18:37 35.222185 -115.312686 186 23218ft 401kts
05-Aug-18 18:38 35.112034 -115.316989 186 25633ft 396kts
05-Aug-18 18:39 34.996351 -115.321679 186 25847ft 442kts
05-Aug-18 18:40 34.869267 -115.326642 181 25851ft 480kts
05-Aug-18 18:41 34.737655 -115.349811 198 25850ft 474kts
05-Aug-18 18:42 34.616776 -115.402818 198 25930ft 462kts
05-Aug-18 18:43 34.495247 -115.455878 198 26007ft 462kts
05-Aug-18 18:44 34.377017 -115.507312 198 26003ft 460kts
05-Aug-18 18:45 34.269537 -115.571205 210 26008ft 455kts
05-Aug-18 18:46 34.166283 -115.635562 200 26020ft 391kts
05-Aug-18 18:47 34.077512 -115.677520 199 26017ft 384kts
05-Aug-18 18:48 33.978103 -115.724422 199 25871ft 386kts
05-Aug-18 18:49 33.885420 -115.768607 200 25766ft 386kts
05-Aug-18 18:50 33.788646 -115.816178 200 25782ft 388kts
05-Aug-18 18:51 33.688566 -115.863507 199 25784ft 387kts
05-Aug-18 18:52 33.590448 -115.909308 199 25239ft 363kts
05-Aug-18 18:53 33.503834 -115.964123 230 24377ft 366kts
05-Aug-18 18:54 33.445298 -116.064912 232 23111ft 377kts
05-Aug-18 18:55 33.386608 -116.165798 232 21230ft 371kts
05-Aug-18 18:56 33.322703 -116.258675 205 19364ft 358kts
05-Aug-18 18:57 33.234632 -116.310390 204 17672ft 350kts
05-Aug-18 18:58 33.149096 -116.360401 204 16111ft 342kts
05-Aug-18 18:59 33.065349 -116.409301 205 14565ft 331kts
05-Aug-18 19:00 32.987114 -116.462780 219 12986ft 322kts
05-Aug-18 19:01 32.920637 -116.529944 219 11443ft 311kts
05-Aug-18 19:02 32.857887 -116.593137 219 9984ft 279kts
05-Aug-18 19:03 32.801237 -116.650132 219 8679ft 266kts
05-Aug-18 19:04 32.755610 -116.716658 239 7393ft 264kts
05-Aug-18 19:05 32.720055 -116.791661 239 6177ft 248kts
05-Aug-18 19:06 32.693703 -116.862315 249 5426ft 232kts
05-Aug-18 19:07 32.673884 -116.932517 274 4637ft 219kts
05-Aug-18 19:08 32.687736 -116.999874 286 4120ft 198kts
05-Aug-18 19:09 32.700840 -117.054473 285 3483ft 157kts
05-Aug-18 19:10 32.711872 -117.099916 286 2206ft 133kts
05-Aug-18 19:11 32.721664 -117.140961 286 1046ft 132kts
05-Aug-18 19:12 32.731735 -117.182217 285 33ft 126kts
05-Aug-18 19:13 32.735055 -117.198396 251 19ft 15kts
05-Aug-18 19:14 32.734849 -117.199117 251 19ft 0kts
05-Aug-18 19:15 32.734881 -117.199632 284 19ft 8kts
05-Aug-18 19:16 32.734643 -117.202451 199 19ft 8kts
05-Aug-18 19:17 32.732246 -117.202350 185 19ft 3kts
05-Aug-18 19:18 32.732227 -117.202352 185 19ft 0kts

Navigation Log

Ident Type
Flight plan parsing failed, navigation log unavailable